Terminal Aerodrome Forecast
Issued by NWS

Home | Current Version | Previous Version | Text Only | Print | Product List | Glossary On
Versions: 1 2 3 4 5 6 7 8 9 10 11 12 13 14 15 16 17 18 19 20 21 22 23 24
000
FTUS43 KJKL 040521
TAFSME
TAF
KSME 040521Z 0406/0506 24005KT P6SM SCT006 BKN130
      TEMPO 0408/0412 2SM BR BKN006
     FM041200 24003KT 6SM BR BKN008
     FM041500 25005KT P6SM BKN015
     FM041700 25006KT P6SM VCSH BKN025
     FM041900 25006KT P6SM VCSH BKN035 BKN090=

USA.gov is the U.S. government's official web portal to all federal, state and local government web resources and services.